createdAt,value
2022-11-17T00:04:56.518Z,3.6
2022-11-17T00:10:34.459Z,0
2022-11-17T00:16:14.159Z,0
2022-11-17T00:21:39.526Z,0
2022-11-17T00:26:56.310Z,0
2022-11-17T00:32:41.000Z,0
2022-11-17T00:38:22.471Z,0
2022-11-17T00:43:33.217Z,3.6
2022-11-17T00:49:20.984Z,4.8
2022-11-17T00:54:58.801Z,2.4
2022-11-17T01:00:09.529Z,2.4
2022-11-17T01:05:56.538Z,3.6
2022-11-17T01:11:18.360Z,2.4
2022-11-17T01:17:08.359Z,2.4
2022-11-17T01:22:32.346Z,2.4
2022-11-17T01:28:03.005Z,0
2022-11-17T01:33:32.053Z,0
2022-11-17T01:39:04.727Z,0
2022-11-17T01:44:49.782Z,2.4
2022-11-17T01:50:30.387Z,2.4
2022-11-17T01:55:58.129Z,4.8
2022-11-17T02:01:32.054Z,3.6
2022-11-17T02:06:55.737Z,0
2022-11-17T02:12:37.589Z,0
2022-11-17T02:18:13.767Z,0
2022-11-17T02:23:23.189Z,0
2022-11-17T02:28:57.336Z,0
2022-11-17T02:34:35.302Z,0
2022-11-17T02:40:19.483Z,0
2022-11-17T02:45:37.179Z,0
2022-11-17T02:51:13.070Z,0
2022-11-17T02:56:47.964Z,0
2022-11-17T03:02:24.845Z,0
2022-11-17T03:08:06.226Z,0
2022-11-17T03:13:17.200Z,0
2022-11-17T03:18:46.825Z,3.6
2022-11-17T03:24:33.807Z,4.8
2022-11-17T03:30:09.320Z,4.8
2022-11-17T03:35:33.401Z,5.9
2022-11-17T03:41:05.172Z,4.8
2022-11-17T03:46:57.418Z,3.6
2022-11-17T03:52:33.050Z,7.2
2022-11-17T03:57:50.050Z,5.9
2022-11-17T04:03:25.337Z,5.9
2022-11-17T04:09:13.066Z,4.8
2022-11-17T04:14:30.084Z,7.2
2022-11-17T04:19:57.293Z,4.8
2022-11-17T04:25:40.859Z,8.4
2022-11-17T04:31:26.630Z,5.9
2022-11-17T04:36:32.598Z,7.2
2022-11-17T04:42:24.046Z,5.9
2022-11-17T04:47:57.399Z,7.2
2022-11-17T04:53:20.379Z,8.4
2022-11-17T04:59:00.509Z,8.4
2022-11-17T05:04:33.802Z,5.9
2022-11-17T05:10:17.171Z,5.9
2022-11-17T05:15:26.468Z,7.2
2022-11-17T05:21:16.131Z,5.9
2022-11-17T05:26:50.362Z,5.9
2022-11-17T05:32:13.845Z,5.9
2022-11-17T05:38:05.883Z,4.8
2022-11-17T05:43:34.438Z,8.4
2022-11-17T05:48:45.561Z,7.2
2022-11-17T05:54:29.624Z,8.4
2022-11-17T06:00:09.849Z,8.4
2022-11-17T06:05:38.743Z,8.4
2022-11-17T06:11:16.844Z,5.9
2022-11-17T06:16:37.182Z,4.8
2022-11-17T06:22:27.635Z,7.2
2022-11-17T06:27:38.896Z,5.9
2022-11-17T06:33:13.551Z,7.2
2022-11-17T06:39:05.667Z,7.2
2022-11-17T06:44:28.646Z,7.2
2022-11-17T06:50:08.869Z,8.4
2022-11-17T06:55:28.661Z,8.4
2022-11-17T07:00:59.385Z,9.6
2022-11-17T07:06:39.381Z,7.2
2022-11-17T07:12:07.035Z,10.7
2022-11-17T07:18:03.811Z,7.2
2022-11-17T07:23:18.113Z,5.9
2022-11-17T07:28:59.366Z,4.8
2022-11-17T07:34:44.977Z,3.6
2022-11-17T07:45:52.446Z,7.2
2022-11-17T07:51:24.789Z,7.2
2022-11-17T07:56:50.195Z,8.4
2022-11-17T08:02:24.622Z,7.2
2022-11-17T08:08:02.252Z,9.6
2022-11-17T08:13:28.601Z,14.4
2022-11-17T08:19:12.083Z,11.9
2022-11-17T08:24:48.287Z,10.7
2022-11-17T08:30:07.658Z,14.4
2022-11-17T08:35:56.839Z,10.7
2022-11-17T08:41:17.022Z,13.2
2022-11-17T08:46:53.788Z,10.7
2022-11-17T08:52:28.303Z,11.9
2022-11-17T08:58:07.552Z,10.7
2022-11-17T09:03:29.746Z,11.9
2022-11-17T09:09:02.158Z,13.2
2022-11-17T09:14:50.344Z,9.6
2022-11-17T09:20:11.520Z,13.2
2022-11-17T09:25:46.928Z,9.6
2022-11-17T09:31:17.204Z,9.6
2022-11-17T09:37:11.296Z,11.9
2022-11-17T09:42:41.184Z,11.9
2022-11-17T09:48:12.570Z,11.9
2022-11-17T09:53:32.601Z,11.9
2022-11-17T09:59:17.213Z,10.7
2022-11-17T10:04:36.840Z,11.9
2022-11-17T10:10:23.605Z,7.2
2022-11-17T10:16:10.547Z,9.6
2022-11-17T10:21:35.393Z,10.7
2022-11-17T10:27:17.468Z,11.9
2022-11-17T10:32:48.724Z,11.9
2022-11-17T10:38:09.430Z,9.6
2022-11-17T10:43:38.795Z,11.9
2022-11-17T10:49:07.314Z,11.9
2022-11-17T10:55:08.187Z,13.2
2022-11-17T11:00:35.578Z,13.2
2022-11-17T11:05:55.168Z,10.7
2022-11-17T11:11:43.438Z,10.7
2022-11-17T11:17:20.535Z,11.9
2022-11-17T11:22:34.877Z,13.2
2022-11-17T11:28:16.997Z,15.6
2022-11-17T11:34:02.525Z,10.7
2022-11-17T11:39:42.788Z,14.4
2022-11-17T11:44:52.262Z,18
2022-11-17T11:50:37.717Z,16.8
2022-11-17T11:56:24.873Z,13.2
2022-11-17T12:01:31.948Z,20.4
2022-11-17T12:07:24.787Z,20.4
2022-11-17T12:12:38.784Z,11.9
2022-11-17T12:18:31.854Z,14.4
2022-11-17T12:23:50.995Z,19.2
2022-11-17T12:29:25.832Z,18
2022-11-17T12:35:08.124Z,13.2
2022-11-17T12:40:31.573Z,18
2022-11-17T12:46:26.581Z,15.6
2022-11-17T12:52:00.675Z,19.2
2022-11-17T12:57:34.653Z,13.2
2022-11-17T13:08:20.264Z,16.8
2022-11-17T13:14:15.204Z,10.7
2022-11-17T13:19:54.433Z,8.4
2022-11-17T13:25:07.451Z,5.9
2022-11-17T13:31:00.498Z,4.8
2022-11-17T13:36:11.558Z,4.8
2022-11-17T13:41:58.386Z,5.9
2022-11-17T13:47:26.542Z,4.8
2022-11-17T13:53:04.421Z,5.9
2022-11-17T13:58:30.897Z,3.6
2022-11-17T14:04:01.153Z,5.9
2022-11-17T14:09:27.685Z,5.9
2022-11-17T14:15:13.198Z,7.2
2022-11-17T14:20:59.092Z,7.2
2022-11-17T14:26:25.666Z,5.9
2022-11-17T14:31:52.901Z,4.8
2022-11-17T14:37:37.222Z,3.6
2022-11-17T14:42:53.065Z,5.9
2022-11-17T14:48:48.889Z,5.9
2022-11-17T14:54:09.943Z,7.2
2022-11-17T14:59:41.477Z,7.2
2022-11-17T15:05:22.928Z,7.2
2022-11-17T15:10:39.228Z,4.8
2022-11-17T15:16:16.626Z,4.8
2022-11-17T15:21:43.304Z,4.8
2022-11-17T15:27:38.919Z,2.4
2022-11-17T15:33:05.223Z,0
2022-11-17T15:38:45.082Z,3.6
2022-11-17T15:44:07.263Z,5.9
2022-11-17T15:49:40.894Z,4.8
2022-11-17T15:55:04.701Z,7.2
2022-11-17T16:00:53.761Z,2.4
2022-11-17T16:06:09.906Z,2.4
2022-11-17T16:11:58.192Z,7.2
2022-11-17T16:17:39.529Z,4.8
2022-11-17T16:22:52.623Z,5.9
2022-11-17T16:28:33.662Z,4.8
2022-11-17T16:34:09.678Z,0
2022-11-17T16:39:53.725Z,4.8
2022-11-17T16:45:17.825Z,10.7
2022-11-17T16:50:39.523Z,10.7
2022-11-17T16:56:26.045Z,4.8
2022-11-17T17:01:57.990Z,3.6
2022-11-17T17:07:22.387Z,8.4
2022-11-17T17:13:14.261Z,5.9
2022-11-17T17:18:27.817Z,7.2
2022-11-17T17:23:54.218Z,5.9
2022-11-17T17:29:40.731Z,3.6
2022-11-17T17:35:03.901Z,0
2022-11-17T17:40:43.618Z,0
2022-11-17T17:46:20.250Z,0
2022-11-17T17:51:52.273Z,9.6
2022-11-17T17:57:41.383Z,27.6
2022-11-17T18:08:26.715Z,27.6
2022-11-17T18:19:53.781Z,21.5
2022-11-17T18:25:29.445Z,13.2
2022-11-17T18:30:53.015Z,11.9
2022-11-17T18:36:19.467Z,13.2
2022-11-17T18:41:42.564Z,5.9
2022-11-17T18:47:14.209Z,0
2022-11-17T18:52:47.989Z,0
2022-11-17T18:58:43.974Z,0
2022-11-17T19:04:14.245Z,0
2022-11-17T19:09:42.107Z,3.6
2022-11-17T19:15:10.175Z,0
2022-11-17T19:20:41.608Z,0
2022-11-17T19:26:21.056Z,0
2022-11-17T19:31:56.648Z,0
2022-11-17T19:37:31.899Z,0
2022-11-17T19:43:04.978Z,3.6
2022-11-17T19:48:39.640Z,2.4
2022-11-17T19:54:10.326Z,0
2022-11-17T19:59:42.033Z,0
2022-11-17T20:05:11.030Z,0
2022-11-17T20:10:24.308Z,0
2022-11-17T20:16:06.264Z,2.4
2022-11-17T20:21:35.743Z,3.6
2022-11-17T20:27:21.922Z,0
2022-11-17T20:32:57.494Z,0
2022-11-17T20:38:31.190Z,0
2022-11-17T20:43:53.569Z,0
2022-11-17T20:49:33.766Z,0
2022-11-17T20:55:09.142Z,0
2022-11-17T21:00:24.108Z,0
2022-11-17T21:05:58.116Z,0
2022-11-17T21:11:43.795Z,0
2022-11-17T21:17:06.632Z,0
2022-11-17T21:22:42.150Z,0
2022-11-17T21:28:15.539Z,0
2022-11-17T21:33:39.721Z,0
2022-11-17T21:39:18.914Z,0
2022-11-17T21:45:00.871Z,2.4
2022-11-17T21:50:35.198Z,0
2022-11-17T21:55:42.351Z,0
2022-11-17T22:01:34.340Z,0
2022-11-17T22:06:55.487Z,3.6
2022-11-17T22:12:32.653Z,0
2022-11-17T22:18:17.263Z,0
2022-11-17T22:23:44.308Z,0
2022-11-17T22:29:03.578Z,0
2022-11-17T22:34:38.306Z,0
2022-11-17T22:40:08.428Z,0
2022-11-17T22:45:38.254Z,0
2022-11-17T22:51:07.268Z,0
2022-11-17T22:56:50.426Z,0
2022-11-17T23:02:22.636Z,0
2022-11-17T23:07:49.360Z,0
2022-11-17T23:13:24.469Z,0
2022-11-17T23:19:12.364Z,0
2022-11-17T23:24:45.807Z,0
2022-11-17T23:29:59.451Z,0
2022-11-17T23:35:25.362Z,0
2022-11-17T23:41:21.623Z,0
2022-11-17T23:46:51.699Z,0
2022-11-17T23:52:16.933Z,0
2022-11-17T23:57:35.466Z,2.4
